Time;durP1;ratioP1;P1;durP2;ratioP2;P2;SDS_P1;SDS_P2;PMS_P1;PMS_P2;Temp;Humidity;BMP_temperature;BMP_pressure;BME280_temperature;BME280_humidity;BME280_pressure;Samples;Min_cycle;Max_cycle;Signal;HPM_P1;HPM_P2
2021/08/21 00:01:33;;;;;;;13.07;11.63;;;;;;;;;;4983033;28;20678;-55
2021/08/21 00:03:58;;;;;;;13.45;12.05;;;;;;;;;;4988656;28;20231;-53
2021/08/21 00:06:24;;;;;;;13.98;12.35;;;;;;;;;;4993204;28;20207;-53
2021/08/21 00:08:50;;;;;;;13.70;12.38;;;;;;;;;;4988247;28;20234;-56
2021/08/21 00:11:15;;;;;;;7.72;6.45;;;;;;;;;;4980635;28;20169;-55
2021/08/21 00:13:40;;;;;;;19.30;12.35;;;;;;;;;;4988964;28;20226;-56
2021/08/21 00:16:06;;;;;;;12.82;11.50;;;;;;;;;;4989745;28;20172;-54
2021/08/21 00:18:33;;;;;;;14.00;12.52;;;;;;;;;;4987233;28;20208;-54
2021/08/21 00:20:58;;;;;;;13.88;12.40;;;;;;;;;;4972708;28;20260;-54
2021/08/21 00:23:23;;;;;;;12.85;11.55;;;;;;;;;;4987213;28;20618;-54
2021/08/21 00:25:49;;;;;;;14.43;12.57;;;;;;;;;;4990084;28;20176;-55
2021/08/21 00:28:14;;;;;;;15.15;13.57;;;;;;;;;;4977203;28;20196;-54
2021/08/21 00:30:39;;;;;;;17.20;13.02;;;;;;;;;;4987539;28;20200;-55
2021/08/21 00:33:04;;;;;;;14.30;12.80;;;;;;;;;;4988995;28;20286;-55
2021/08/21 00:35:30;;;;;;;15.10;13.55;;;;;;;;;;4991038;28;20200;-55
2021/08/21 00:37:55;;;;;;;15.35;13.75;;;;;;;;;;4991955;28;20199;-54
2021/08/21 00:40:20;;;;;;;16.75;13.88;;;;;;;;;;4987314;28;20223;-55
2021/08/21 00:42:45;;;;;;;15.40;13.88;;;;;;;;;;4988845;28;20200;-54
2021/08/21 00:45:11;;;;;;;14.85;13.35;;;;;;;;;;4984180;28;20187;-54
2021/08/21 00:47:36;;;;;;;15.05;13.45;;;;;;;;;;4992197;28;20215;-54
2021/08/21 00:50:02;;;;;;;14.23;12.73;;;;;;;;;;4983583;28;20176;-54
2021/08/21 00:52:29;;;;;;;15.63;13.27;;;;;;;;;;4973082;28;20232;-54
2021/08/21 00:54:55;;;;;;;14.82;13.25;;;;;;;;;;4983725;28;20187;-56
2021/08/21 00:57:20;;;;;;;13.85;12.45;;;;;;;;;;4984064;28;20173;-55
2021/08/21 00:59:47;;;;;;;14.40;12.50;;;;;;;;;;4979897;28;20589;-55
2021/08/21 01:02:13;;;;;;;15.60;12.50;;;;;;;;;;4983000;28;20645;-54
2021/08/21 01:04:39;;;;;;;13.90;12.35;;;;;;;;;;4987406;28;20176;-55
2021/08/21 01:07:11;;;;;;;13.60;11.88;;;;;;;;;;4991096;28;20208;-54
2021/08/21 01:09:37;;;;;;;15.98;12.13;;;;;;;;;;4991408;28;20176;-55
2021/08/21 01:12:04;;;;;;;13.55;12.15;;;;;;;;;;4984068;28;20192;-54
2021/08/21 01:14:29;;;;;;;14.57;11.30;;;;;;;;;;4992090;28;20250;-53
2021/08/21 01:16:54;;;;;;;15.48;10.95;;;;;;;;;;4990393;28;20267;-55
2021/08/21 01:19:21;;;;;;;13.90;11.27;;;;;;;;;;4981497;28;20347;-55
2021/08/21 01:21:46;;;;;;;12.77;11.40;;;;;;;;;;4990231;28;20634;-55
2021/08/21 01:24:11;;;;;;;14.43;12.38;;;;;;;;;;4984103;28;20343;-55
2021/08/21 01:26:46;;;;;;;14.75;12.88;;;;;;;;;;4983878;28;20706;-55
2021/08/21 01:29:11;;;;;;;15.43;13.93;;;;;;;;;;4978482;28;20183;-54
2021/08/21 01:31:37;;;;;;;14.60;13.15;;;;;;;;;;4991424;28;20180;-56
2021/08/21 01:34:02;;;;;;;14.70;13.05;;;;;;;;;;4989934;28;20294;-54
2021/08/21 01:36:37;;;;;;;17.77;13.80;;;;;;;;;;4986488;28;20199;-54
2021/08/21 01:39:02;;;;;;;14.75;13.20;;;;;;;;;;4973771;28;20172;-58
2021/08/21 01:41:27;;;;;;;16.08;13.02;;;;;;;;;;4985911;28;21087;-56
2021/08/21 01:43:52;;;;;;;15.65;13.88;;;;;;;;;;4989125;28;20279;-55
2021/08/21 01:46:18;;;;;;;15.98;13.98;;;;;;;;;;4987039;28;20172;-55
2021/08/21 01:48:43;;;;;;;15.85;14.18;;;;;;;;;;4989480;28;20223;-56
2021/08/21 01:51:08;;;;;;;14.27;12.63;;;;;;;;;;4980605;28;20215;-56
2021/08/21 01:53:33;;;;;;;15.75;14.15;;;;;;;;;;4972426;28;20276;-56
2021/08/21 01:55:58;;;;;;;14.68;13.15;;;;;;;;;;4986699;28;20180;-55
2021/08/21 01:58:24;;;;;;;16.50;12.73;;;;;;;;;;4983588;28;20208;-56
2021/08/21 02:00:49;;;;;;;14.63;13.23;;;;;;;;;;4990479;28;20243;-56
2021/08/21 02:03:14;;;;;;;13.68;11.38;;;;;;;;;;4988205;28;20197;-56
2021/08/21 02:05:39;;;;;;;12.95;11.60;;;;;;;;;;4979090;28;20541;-55
2021/08/21 02:08:05;;;;;;;14.80;13.32;;;;;;;;;;4991420;28;20203;-56
2021/08/21 02:10:30;;;;;;;15.02;13.52;;;;;;;;;;4985127;28;20168;-55
2021/08/21 02:12:55;;;;;;;15.98;12.77;;;;;;;;;;4981733;28;20591;-55
2021/08/21 02:15:20;;;;;;;15.10;13.50;;;;;;;;;;4990033;28;20203;-56
2021/08/21 02:17:45;;;;;;;15.93;14.23;;;;;;;;;;4990124;28;20625;-56
2021/08/21 02:20:12;;;;;;;15.23;13.73;;;;;;;;;;4977840;28;20184;-56
2021/08/21 02:22:38;;;;;;;15.73;14.23;;;;;;;;;;4991141;28;20683;-56
2021/08/21 02:25:03;;;;;;;16.70;14.60;;;;;;;;;;4990586;28;20291;-56
2021/08/21 02:27:36;;;;;;;15.63;14.13;;;;;;;;;;4986877;28;20290;-56
2021/08/21 02:30:01;;;;;;;17.08;14.40;;;;;;;;;;4988686;28;20180;-56
2021/08/21 02:32:26;;;;;;;16.30;14.38;;;;;;;;;;4990724;28;20169;-56
2021/08/21 02:34:51;;;;;;;16.55;14.73;;;;;;;;;;4987918;28;20192;-56
2021/08/21 02:37:19;;;;;;;16.92;15.18;;;;;;;;;;4979070;28;20280;-56
2021/08/21 02:39:44;;;;;;;17.02;14.63;;;;;;;;;;4973821;28;20196;-56
2021/08/21 02:42:09;;;;;;;15.75;14.07;;;;;;;;;;4981379;28;20191;-57
2021/08/21 02:44:34;;;;;;;16.80;15.00;;;;;;;;;;4990793;28;20172;-56
2021/08/21 02:46:59;;;;;;;18.90;14.55;;;;;;;;;;4990382;28;20750;-56
2021/08/21 02:49:25;;;;;;;15.35;13.75;;;;;;;;;;4988478;28;20191;-56
2021/08/21 02:51:50;;;;;;;16.35;14.63;;;;;;;;;;4974346;28;20267;-56
2021/08/21 02:54:15;;;;;;;15.70;14.20;;;;;;;;;;4995012;28;20196;-56
2021/08/21 02:56:40;;;;;;;16.50;14.73;;;;;;;;;;4982554;28;20819;-55
2021/08/21 02:59:05;;;;;;;15.00;13.30;;;;;;;;;;4977169;28;20211;-56
2021/08/21 03:01:31;;;;;;;15.43;13.85;;;;;;;;;;4986494;28;20412;-56
2021/08/21 03:03:56;;;;;;;17.80;14.40;;;;;;;;;;4988046;28;20290;-56
2021/08/21 03:06:21;;;;;;;15.75;14.02;;;;;;;;;;4982898;28;20178;-56
2021/08/21 03:08:46;;;;;;;16.67;14.15;;;;;;;;;;4984403;28;20204;-56
2021/08/21 03:11:12;;;;;;;16.35;14.05;;;;;;;;;;4983028;28;20259;-56
2021/08/21 03:13:40;;;;;;;14.80;13.30;;;;;;;;;;4992462;28;20289;-55
2021/08/21 03:16:06;;;;;;;15.98;13.68;;;;;;;;;;4997431;28;20759;-56
2021/08/21 03:18:31;;;;;;;15.63;13.80;;;;;;;;;;4992866;28;20220;-56
2021/08/21 03:20:56;;;;;;;14.98;13.45;;;;;;;;;;4990029;28;20176;-55
2021/08/21 03:23:21;;;;;;;14.88;13.35;;;;;;;;;;4977788;28;20263;-54
2021/08/21 03:25:47;;;;;;;15.68;14.00;;;;;;;;;;4986094;28;20643;-56
2021/08/21 03:28:12;;;;;;;14.70;13.30;;;;;;;;;;4995679;28;20199;-56
2021/08/21 03:30:37;;;;;;;14.50;13.10;;;;;;;;;;4996862;28;20271;-56
2021/08/21 03:33:05;;;;;;;15.70;13.40;;;;;;;;;;4989863;28;20203;-56
2021/08/21 03:35:30;;;;;;;15.38;13.73;;;;;;;;;;5001573;28;20177;-56
2021/08/21 03:37:55;;;;;;;14.93;13.33;;;;;;;;;;4986516;28;20184;-56
2021/08/21 03:40:21;;;;;;;14.50;13.00;;;;;;;;;;4980382;28;20485;-56
2021/08/21 03:42:46;;;;;;;15.10;13.60;;;;;;;;;;4996437;28;20212;-56
2021/08/21 03:45:11;;;;;;;15.50;13.65;;;;;;;;;;4990120;28;20188;-56
2021/08/21 03:47:37;;;;;;;16.42;13.48;;;;;;;;;;4982022;28;20908;-56
2021/08/21 03:50:02;;;;;;;14.85;13.30;;;;;;;;;;4985160;28;20183;-56
2021/08/21 03:52:27;;;;;;;14.60;13.10;;;;;;;;;;4982741;28;20209;-56
2021/08/21 03:54:53;;;;;;;14.07;12.50;;;;;;;;;;4976934;28;20527;-55
2021/08/21 03:57:18;;;;;;;14.30;12.82;;;;;;;;;;4991470;28;20181;-54
2021/08/21 03:59:43;;;;;;;14.45;13.05;;;;;;;;;;4989277;28;20187;-54
2021/08/21 04:02:08;;;;;;;14.07;12.60;;;;;;;;;;4987436;28;20172;-53
2021/08/21 04:04:33;;;;;;;14.57;13.18;;;;;;;;;;4991181;28;20424;-56
2021/08/21 04:06:58;;;;;;;13.93;12.57;;;;;;;;;;4986630;28;20247;-55
2021/08/21 04:09:24;;;;;;;14.57;13.00;;;;;;;;;;4986192;28;20637;-54
2021/08/21 04:11:49;;;;;;;12.15;10.95;;;;;;;;;;4990559;28;20427;-56
2021/08/21 04:14:14;;;;;;;14.50;12.73;;;;;;;;;;4987300;28;20207;-55
2021/08/21 04:16:39;;;;;;;15.52;11.00;;;;;;;;;;4996870;28;20175;-54
2021/08/21 04:19:04;;;;;;;15.00;13.25;;;;;;;;;;4991314;28;20229;-54
2021/08/21 04:21:29;;;;;;;12.00;9.25;;;;;;;;;;4994144;28;20168;-56
2021/08/21 04:23:55;;;;;;;14.25;12.75;;;;;;;;;;4992257;28;20699;-56
2021/08/21 04:26:20;;;;;;;13.63;12.23;;;;;;;;;;4992874;28;20276;-56
2021/08/21 04:28:46;;;;;;;11.65;10.45;;;;;;;;;;4984810;28;20208;-56
2021/08/21 04:31:11;;;;;;;13.25;11.95;;;;;;;;;;4993476;28;20183;-56
2021/08/21 04:33:36;;;;;;;14.25;12.70;;;;;;;;;;4993221;28;20766;-56
2021/08/21 04:36:01;;;;;;;18.33;13.87;;;;;;;;;;4990171;28;20177;-55
2021/08/21 04:38:27;;;;;;;14.18;12.68;;;;;;;;;;4979515;28;20974;-55
2021/08/21 04:40:52;;;;;;;15.60;14.00;;;;;;;;;;4977371;28;20783;-56
2021/08/21 04:43:19;;;;;;;17.70;15.80;;;;;;;;;;4985169;28;20206;-56
2021/08/21 04:45:44;;;;;;;14.52;13.00;;;;;;;;;;4993161;28;20179;-56
2021/08/21 04:48:10;;;;;;;14.15;12.35;;;;;;;;;;4992554;28;20196;-54
2021/08/21 04:50:36;;;;;;;45.67;39.03;;;;;;;;;;4986703;28;20665;-55
2021/08/21 04:53:04;;;;;;;11.25;10.20;;;;;;;;;;4984411;28;20207;-55
2021/08/21 04:55:30;;;;;;;10.57;9.57;;;;;;;;;;4977272;28;20662;-56
2021/08/21 04:57:56;;;;;;;16.35;13.50;;;;;;;;;;4986415;28;20180;-56
2021/08/21 05:00:21;;;;;;;15.05;12.02;;;;;;;;;;4986480;28;20263;-55
2021/08/21 05:02:47;;;;;;;13.60;12.18;;;;;;;;;;4985752;28;20232;-55
2021/08/21 05:05:12;;;;;;;13.63;11.88;;;;;;;;;;4981319;28;20259;-56
2021/08/21 05:07:43;;;;;;;14.35;12.18;;;;;;;;;;4980603;28;20200;-55
2021/08/21 05:10:08;;;;;;;15.27;13.43;;;;;;;;;;4978855;28;20204;-56
2021/08/21 05:12:33;;;;;;;14.23;12.80;;;;;;;;;;4980899;28;20674;-55
2021/08/21 05:14:58;;;;;;;13.35;12.05;;;;;;;;;;4987066;28;20211;-56
2021/08/21 05:17:23;;;;;;;13.35;12.05;;;;;;;;;;4981868;28;20179;-56
2021/08/21 05:19:51;;;;;;;13.05;11.75;;;;;;;;;;4985617;28;20199;-55
2021/08/21 05:22:28;;;;;;;13.52;12.23;;;;;;;;;;4977562;28;20196;-56
2021/08/21 05:24:53;;;;;;;224.77;200.13;;;;;;;;;;4978458;28;20264;-53
2021/08/21 05:27:19;;;;;;;15.13;13.63;;;;;;;;;;4980261;28;20639;-56
2021/08/21 05:29:45;;;;;;;13.45;12.15;;;;;;;;;;4986874;28;20304;-55
2021/08/21 05:32:10;;;;;;;13.13;11.63;;;;;;;;;;4987860;28;20211;-57
2021/08/21 05:34:35;;;;;;;14.05;11.45;;;;;;;;;;4983101;28;20246;-56
2021/08/21 05:37:01;;;;;;;14.15;12.35;;;;;;;;;;4985902;28;20203;-56
2021/08/21 05:39:27;;;;;;;12.80;11.55;;;;;;;;;;4979268;28;20271;-56
2021/08/21 05:41:52;;;;;;;14.60;11.75;;;;;;;;;;4983291;28;20275;-56
2021/08/21 05:44:17;;;;;;;14.18;12.68;;;;;;;;;;4977621;28;20210;-56
2021/08/21 05:46:42;;;;;;;14.48;13.00;;;;;;;;;;4980414;28;20187;-55
2021/08/21 05:49:07;;;;;;;13.77;12.43;;;;;;;;;;4982429;28;20168;-56
2021/08/21 05:51:33;;;;;;;16.20;12.52;;;;;;;;;;4986511;28;20180;-56
2021/08/21 05:53:58;;;;;;;14.98;13.32;;;;;;;;;;4984383;28;20283;-54
2021/08/21 05:56:23;;;;;;;15.20;13.60;;;;;;;;;;4985704;28;20226;-54
2021/08/21 05:58:49;;;;;;;14.82;13.32;;;;;;;;;;4986915;28;20195;-56
2021/08/21 06:01:14;;;;;;;15.02;13.52;;;;;;;;;;4981740;28;20184;-61
2021/08/21 06:03:39;;;;;;;14.80;13.32;;;;;;;;;;4986849;28;20203;-60
2021/08/21 06:06:04;;;;;;;14.13;12.82;;;;;;;;;;4985711;28;20188;-56
2021/08/21 06:08:29;;;;;;;14.38;12.98;;;;;;;;;;4984817;28;20550;-57
2021/08/21 06:10:56;;;;;;;25.10;22.40;;;;;;;;;;4986634;28;20176;-55
2021/08/21 06:13:21;;;;;;;15.13;13.60;;;;;;;;;;4984788;28;20204;-56
2021/08/21 06:15:46;;;;;;;26.52;23.70;;;;;;;;;;4980826;28;20696;-56
2021/08/21 06:18:11;;;;;;;14.07;12.63;;;;;;;;;;4985343;28;20180;-56
2021/08/21 06:20:37;;;;;;;14.43;12.63;;;;;;;;;;4989922;28;20957;-56
2021/08/21 06:23:02;;;;;;;15.13;13.57;;;;;;;;;;4985182;28;20200;-57
2021/08/21 06:25:27;;;;;;;18.48;13.55;;;;;;;;;;4983547;28;20207;-55
2021/08/21 06:27:52;;;;;;;15.15;13.63;;;;;;;;;;4972454;28;20212;-56
2021/08/21 06:30:18;;;;;;;14.65;13.20;;;;;;;;;;4983781;28;20183;-55
2021/08/21 06:32:43;;;;;;;15.43;12.90;;;;;;;;;;4982902;28;20196;-56
2021/08/21 06:35:08;;;;;;;22.83;20.42;;;;;;;;;;4986919;28;20173;-58
2021/08/21 06:37:34;;;;;;;57.88;47.08;;;;;;;;;;4982594;28;20271;-58
2021/08/21 06:39:59;;;;;;;62.60;50.73;;;;;;;;;;4971988;28;20186;-56
2021/08/21 06:42:24;;;;;;;12.73;11.52;;;;;;;;;;4982303;28;20983;-57
2021/08/21 06:44:50;;;;;;;12.32;10.07;;;;;;;;;;4985703;28;20270;-58
2021/08/21 06:47:17;;;;;;;12.60;10.65;;;;;;;;;;4978226;28;20614;-59
2021/08/21 06:49:42;;;;;;;10.93;9.45;;;;;;;;;;4982996;28;20176;-57
2021/08/21 06:52:07;;;;;;;12.63;10.30;;;;;;;;;;4985758;28;20672;-57
2021/08/21 06:54:32;;;;;;;11.20;10.10;;;;;;;;;;4980351;28;20199;-58
2021/08/21 06:56:58;;;;;;;12.35;10.48;;;;;;;;;;4976090;28;20192;-59
2021/08/21 06:59:23;;;;;;;12.50;9.77;;;;;;;;;;4984704;28;20206;-58
2021/08/21 07:01:48;;;;;;;11.43;10.30;;;;;;;;;;4987043;28;20420;-58
2021/08/21 07:04:14;;;;;;;11.50;10.40;;;;;;;;;;4984662;28;20688;-60
2021/08/21 07:06:39;;;;;;;11.25;10.15;;;;;;;;;;4983632;28;20438;-60
2021/08/21 07:09:04;;;;;;;10.97;9.87;;;;;;;;;;4973475;28;20180;-60
2021/08/21 07:11:29;;;;;;;10.97;9.97;;;;;;;;;;4980697;28;20450;-60
2021/08/21 07:13:55;;;;;;;11.52;10.32;;;;;;;;;;4988474;28;20467;-59
2021/08/21 07:16:20;;;;;;;11.55;10.55;;;;;;;;;;4973862;28;20192;-59
2021/08/21 07:18:45;;;;;;;11.32;10.32;;;;;;;;;;4983264;28;20191;-57
2021/08/21 07:21:11;;;;;;;11.63;10.50;;;;;;;;;;4984083;28;20218;-59
2021/08/21 07:23:36;;;;;;;11.07;9.57;;;;;;;;;;4983062;28;20292;-58
2021/08/21 07:26:02;;;;;;;10.93;10.02;;;;;;;;;;4981929;28;20234;-57
2021/08/21 07:28:27;;;;;;;10.43;9.52;;;;;;;;;;4982643;28;20208;-59
2021/08/21 07:30:52;;;;;;;11.67;10.63;;;;;;;;;;4985974;28;20226;-56
2021/08/21 07:33:17;;;;;;;11.90;10.88;;;;;;;;;;4983541;28;20207;-59
2021/08/21 07:35:42;;;;;;;11.73;10.53;;;;;;;;;;4985042;28;20664;-59
2021/08/21 07:38:08;;;;;;;11.90;10.87;;;;;;;;;;4988192;28;20434;-56
2021/08/21 07:40:35;;;;;;;11.43;10.23;;;;;;;;;;4985916;28;20458;-58
2021/08/21 07:43:00;;;;;;;12.13;10.93;;;;;;;;;;4984151;28;20204;-64
2021/08/21 07:45:25;;;;;;;11.85;10.80;;;;;;;;;;4983269;28;20177;-57
2021/08/21 07:47:51;;;;;;;14.27;12.87;;;;;;;;;;4987008;28;20211;-57
2021/08/21 07:50:17;;;;;;;13.43;12.20;;;;;;;;;;4981984;28;22214;-58
2021/08/21 07:52:46;;;;;;;13.30;10.60;;;;;;;;;;4988972;28;20282;-57
2021/08/21 07:55:11;;;;;;;12.23;11.15;;;;;;;;;;4983151;28;20609;-55
2021/08/21 07:57:36;;;;;;;13.05;11.93;;;;;;;;;;4998891;28;20212;-58
2021/08/21 08:00:02;;;;;;;12.23;11.13;;;;;;;;;;4992194;28;20204;-59
2021/08/21 08:02:27;;;;;;;15.00;13.48;;;;;;;;;;4981266;28;20554;-66
2021/08/21 08:04:52;;;;;;;17.93;16.17;;;;;;;;;;4981739;28;20184;-58
2021/08/21 08:07:17;;;;;;;19.27;17.10;;;;;;;;;;4980968;28;20207;-57
2021/08/21 08:09:42;;;;;;;18.80;15.00;;;;;;;;;;4984048;28;20183;-58
2021/08/21 08:12:08;;;;;;;17.13;15.33;;;;;;;;;;4980844;28;20179;-58
2021/08/21 08:14:33;;;;;;;18.05;14.60;;;;;;;;;;4978005;28;20719;-58
2021/08/21 08:16:58;;;;;;;15.20;13.70;;;;;;;;;;4981105;28;20184;-58
2021/08/21 08:19:23;;;;;;;15.23;13.73;;;;;;;;;;4986604;28;20193;-58
2021/08/21 08:21:49;;;;;;;15.40;13.73;;;;;;;;;;4987448;28;20184;-58
2021/08/21 08:24:16;;;;;;;16.40;14.90;;;;;;;;;;4979542;28;20223;-59
2021/08/21 08:26:41;;;;;;;16.40;14.85;;;;;;;;;;4977702;28;20184;-57
2021/08/21 08:29:06;;;;;;;16.15;14.43;;;;;;;;;;4983855;28;20180;-56
2021/08/21 08:31:32;;;;;;;15.70;14.13;;;;;;;;;;4988422;28;20214;-60
2021/08/21 08:33:57;;;;;;;16.93;15.20;;;;;;;;;;4987092;28;20818;-57
2021/08/21 08:36:22;;;;;;;17.08;15.50;;;;;;;;;;4988349;28;20208;-56
2021/08/21 08:38:49;;;;;;;16.60;14.90;;;;;;;;;;4989984;28;20179;-56
2021/08/21 08:41:16;;;;;;;18.88;15.70;;;;;;;;;;4986702;28;20259;-56
2021/08/21 08:43:42;;;;;;;21.27;16.88;;;;;;;;;;4989461;28;20192;-58
2021/08/21 08:46:08;;;;;;;18.85;17.05;;;;;;;;;;4984745;28;20188;-57
2021/08/21 08:48:35;;;;;;;18.27;16.38;;;;;;;;;;4987360;28;20286;-56
2021/08/21 08:51:00;;;;;;;19.65;17.75;;;;;;;;;;4986701;28;20187;-56
2021/08/21 08:53:25;;;;;;;18.57;16.87;;;;;;;;;;4990381;28;20603;-55
2021/08/21 08:55:50;;;;;;;17.80;16.10;;;;;;;;;;4989570;28;20426;-56
2021/08/21 08:58:15;;;;;;;24.07;17.57;;;;;;;;;;4981320;28;20430;-56
2021/08/21 09:00:41;;;;;;;18.00;16.20;;;;;;;;;;4972039;28;20235;-55
2021/08/21 09:03:16;;;;;;;18.83;16.55;;;;;;;;;;4990164;28;20760;-54
2021/08/21 09:05:42;;;;;;;17.75;15.93;;;;;;;;;;4987874;28;20176;-57
2021/08/21 09:08:18;;;;;;;23.90;21.52;;;;;;;;;;4980925;28;20209;-56
2021/08/21 09:10:49;;;;;;;17.85;16.15;;;;;;;;;;4987933;28;20263;-56
2021/08/21 09:13:15;;;;;;;17.50;15.48;;;;;;;;;;4991082;28;20204;-56
2021/08/21 09:15:42;;;;;;;17.38;14.68;;;;;;;;;;4977161;28;20732;-58
2021/08/21 09:18:07;;;;;;;16.80;15.20;;;;;;;;;;4988189;28;20652;-58
2021/08/21 09:20:50;;;;;;;18.35;16.75;;;;;;;;;;4978568;28;20191;-57
2021/08/21 09:23:19;;;;;;;17.17;14.77;;;;;;;;;;4988224;28;20209;-56
2021/08/21 09:25:45;;;;;;;16.77;15.07;;;;;;;;;;4987602;28;20250;-57
2021/08/21 09:28:18;;;;;;;16.13;14.50;;;;;;;;;;4970699;28;20299;-57
2021/08/21 09:30:43;;;;;;;15.82;14.00;;;;;;;;;;4979648;28;20224;-55
2021/08/21 09:33:09;;;;;;;16.30;14.80;;;;;;;;;;4990589;28;20235;-57
2021/08/21 09:35:34;;;;;;;16.00;14.40;;;;;;;;;;4987196;28;20184;-57
2021/08/21 09:38:00;;;;;;;16.42;14.90;;;;;;;;;;4988006;28;20435;-57
2021/08/21 09:40:30;;;;;;;15.23;13.73;;;;;;;;;;4989962;28;20176;-57
2021/08/21 09:42:55;;;;;;;17.77;14.02;;;;;;;;;;4982456;28;20245;-55
2021/08/21 09:45:21;;;;;;;15.07;13.60;;;;;;;;;;4988490;28;20180;-57
2021/08/21 09:47:47;;;;;;;14.55;13.18;;;;;;;;;;4989348;28;20208;-56
2021/08/21 09:50:14;;;;;;;15.48;13.60;;;;;;;;;;4989261;28;20841;-56
2021/08/21 09:52:39;;;;;;;14.27;12.82;;;;;;;;;;4987850;28;20375;-56
2021/08/21 09:55:06;;;;;;;13.90;12.45;;;;;;;;;;4990845;28;20255;-57
2021/08/21 09:57:32;;;;;;;12.50;11.35;;;;;;;;;;4988247;28;20191;-55
2021/08/21 09:59:59;;;;;;;13.98;12.52;;;;;;;;;;4988884;28;20180;-56
2021/08/21 10:02:25;;;;;;;13.25;11.93;;;;;;;;;;4986426;28;20180;-58
2021/08/21 10:04:50;;;;;;;14.20;12.40;;;;;;;;;;4986679;28;20321;-56
2021/08/21 10:07:19;;;;;;;14.43;13.07;;;;;;;;;;4984941;28;20741;-56
2021/08/21 10:09:44;;;;;;;13.80;12.55;;;;;;;;;;4988776;28;20679;-56
2021/08/21 10:12:13;;;;;;;14.02;12.63;;;;;;;;;;4989682;28;20177;-56
2021/08/21 10:14:39;;;;;;;12.95;11.63;;;;;;;;;;4987816;28;20582;-56
2021/08/21 10:17:05;;;;;;;13.25;11.50;;;;;;;;;;4987638;28;20196;-58
2021/08/21 10:19:30;;;;;;;12.18;10.98;;;;;;;;;;4989640;28;20172;-58
2021/08/21 10:22:00;;;;;;;18.95;10.52;;;;;;;;;;4988201;28;20216;-57
2021/08/21 10:24:47;;;;;;;15.15;11.35;;;;;;;;;;4989041;28;20200;-57
2021/08/21 10:27:18;;;;;;;11.77;10.60;;;;;;;;;;4986176;28;20258;-58
2021/08/21 10:30:02;;;;;;;10.75;9.75;;;;;;;;;;4984862;28;20177;-57
2021/08/21 10:32:28;;;;;;;10.55;9.50;;;;;;;;;;4977861;28;20862;-58
2021/08/21 10:34:54;;;;;;;10.77;9.75;;;;;;;;;;4988249;28;20239;-56
2021/08/21 10:37:31;;;;;;;9.63;8.52;;;;;;;;;;4984728;28;20663;-58
2021/08/21 10:39:56;;;;;;;11.88;9.85;;;;;;;;;;4983045;28;20227;-58
2021/08/21 10:42:23;;;;;;;12.90;9.13;;;;;;;;;;4970314;28;20177;-58
2021/08/21 10:44:50;;;;;;;14.27;11.35;;;;;;;;;;4981696;28;20442;-59
2021/08/21 10:47:30;;;;;;;11.48;10.38;;;;;;;;;;4976617;28;20200;-58
2021/08/21 10:49:56;;;;;;;10.27;9.27;;;;;;;;;;4979525;28;20191;-57
2021/08/21 10:52:40;;;;;;;10.07;9.18;;;;;;;;;;4979299;28;20256;-58
2021/08/21 10:55:14;;;;;;;9.98;9.07;;;;;;;;;;4978321;28;20242;-59
2021/08/21 10:57:53;;;;;;;9.18;8.25;;;;;;;;;;4987872;28;20196;-58
2021/08/21 11:00:37;;;;;;;8.77;7.97;;;;;;;;;;4975655;28;20680;-58
2021/08/21 11:03:02;;;;;;;9.38;8.40;;;;;;;;;;4980810;28;20262;-56
2021/08/21 11:05:46;;;;;;;8.17;7.47;;;;;;;;;;4976819;28;20799;-56
2021/08/21 11:08:13;;;;;;;8.20;7.43;;;;;;;;;;4985406;28;20458;-59
2021/08/21 11:10:38;;;;;;;7.60;7.00;;;;;;;;;;4979712;28;20525;-57
2021/08/21 11:13:03;;;;;;;7.18;6.57;;;;;;;;;;4979247;28;20270;-58
2021/08/21 11:15:32;;;;;;;9.18;8.25;;;;;;;;;;4980320;28;20176;-57
2021/08/21 11:17:57;;;;;;;8.52;7.72;;;;;;;;;;4979141;28;20212;-57
2021/08/21 11:20:26;;;;;;;11.05;9.77;;;;;;;;;;4972747;28;20197;-59
2021/08/21 11:23:07;;;;;;;8.98;8.02;;;;;;;;;;4977647;28;20230;-59
2021/08/21 11:25:36;;;;;;;10.52;9.50;;;;;;;;;;4976047;28;20199;-60
2021/08/21 11:28:03;;;;;;;9.93;8.23;;;;;;;;;;4981437;28;20208;-57
2021/08/21 11:30:28;;;;;;;8.57;7.78;;;;;;;;;;4982977;28;20669;-57
2021/08/21 11:32:53;;;;;;;8.20;7.38;;;;;;;;;;4982741;28;20261;-59
2021/08/21 11:35:25;;;;;;;8.18;7.47;;;;;;;;;;4991697;28;20724;-60
2021/08/21 11:37:51;;;;;;;8.27;7.47;;;;;;;;;;4986942;28;20254;-59
2021/08/21 11:40:16;;;;;;;8.70;6.57;;;;;;;;;;4978825;28;20216;-58
2021/08/21 11:42:49;;;;;;;7.40;6.63;;;;;;;;;;4984784;28;20234;-57
2021/08/21 11:45:15;;;;;;;6.65;6.05;;;;;;;;;;4981744;28;20186;-58
2021/08/21 11:47:40;;;;;;;8.25;6.15;;;;;;;;;;4982676;28;20293;-58
2021/08/21 11:50:18;;;;;;;7.45;6.57;;;;;;;;;;4981350;28;20658;-57
2021/08/21 11:52:47;;;;;;;6.75;6.15;;;;;;;;;;4980584;28;20241;-56
2021/08/21 11:55:12;;;;;;;6.38;5.78;;;;;;;;;;4988004;28;20177;-57
2021/08/21 11:57:41;;;;;;;6.40;5.80;;;;;;;;;;4988987;28;20215;-58
2021/08/21 12:00:13;;;;;;;7.63;6.93;;;;;;;;;;4990153;28;20196;-57
2021/08/21 12:02:45;;;;;;;6.82;6.22;;;;;;;;;;4988138;28;20299;-57
2021/08/21 12:05:10;;;;;;;6.63;6.10;;;;;;;;;;4990828;28;20869;-58
2021/08/21 12:07:35;;;;;;;6.88;6.18;;;;;;;;;;4987803;28;20207;-56
2021/08/21 12:10:00;;;;;;;7.27;6.67;;;;;;;;;;4984581;28;20188;-57
2021/08/21 12:12:33;;;;;;;6.87;6.23;;;;;;;;;;4992100;28;20489;-58
2021/08/21 12:14:59;;;;;;;5.75;5.13;;;;;;;;;;4990509;28;20463;-57
2021/08/21 12:17:24;;;;;;;6.28;5.78;;;;;;;;;;4978478;28;20207;-57
2021/08/21 12:19:49;;;;;;;7.65;5.90;;;;;;;;;;4991347;28;20180;-57
2021/08/21 12:22:15;;;;;;;6.82;6.10;;;;;;;;;;4989051;28;20181;-57
2021/08/21 12:24:53;;;;;;;6.95;6.35;;;;;;;;;;4989295;28;20230;-57
2021/08/21 12:27:22;;;;;;;7.15;6.53;;;;;;;;;;4988079;28;20203;-58
2021/08/21 12:29:47;;;;;;;7.30;6.70;;;;;;;;;;4987857;28;20242;-57
2021/08/21 12:32:27;;;;;;;7.53;6.85;;;;;;;;;;4983663;28;20185;-58
2021/08/21 12:35:08;;;;;;;7.00;6.38;;;;;;;;;;4990637;28;20641;-58
2021/08/21 12:37:34;;;;;;;7.60;6.90;;;;;;;;;;4985822;28;20181;-57
2021/08/21 12:40:06;;;;;;;6.60;6.00;;;;;;;;;;4989154;28;20192;-57
2021/08/21 12:42:31;;;;;;;6.10;5.50;;;;;;;;;;4992017;28;20627;-57
2021/08/21 12:44:56;;;;;;;6.78;6.13;;;;;;;;;;4990844;28;20231;-57
2021/08/21 12:47:21;;;;;;;7.32;6.70;;;;;;;;;;4990324;28;20212;-57
2021/08/21 12:49:48;;;;;;;7.20;6.60;;;;;;;;;;4987860;28;20255;-57
2021/08/21 12:52:19;;;;;;;7.60;6.65;;;;;;;;;;4991907;28;20287;-58
2021/08/21 12:54:45;;;;;;;6.88;6.28;;;;;;;;;;4987993;28;20242;-57
2021/08/21 12:57:14;;;;;;;8.52;5.38;;;;;;;;;;4984307;28;20173;-57
2021/08/21 12:59:40;;;;;;;5.88;5.38;;;;;;;;;;4982371;28;20219;-58
2021/08/21 13:02:06;;;;;;;6.05;5.53;;;;;;;;;;4986904;28;20282;-57
2021/08/21 13:04:33;;;;;;;5.95;5.45;;;;;;;;;;4992557;28;20199;-57
2021/08/21 13:06:59;;;;;;;5.47;5.03;;;;;;;;;;4988442;28;20188;-58
2021/08/21 13:09:24;;;;;;;5.68;5.18;;;;;;;;;;4986446;28;20666;-57
2021/08/21 13:11:49;;;;;;;5.70;5.30;;;;;;;;;;4983368;28;20200;-58
2021/08/21 13:14:14;;;;;;;10.07;5.40;;;;;;;;;;4991994;28;20858;-58
2021/08/21 13:16:43;;;;;;;6.20;5.60;;;;;;;;;;4990332;28;20430;-58
2021/08/21 13:19:08;;;;;;;5.95;5.40;;;;;;;;;;4979897;28;20427;-58
2021/08/21 13:21:33;;;;;;;7.97;5.68;;;;;;;;;;4986480;28;20684;-59
2021/08/21 13:23:59;;;;;;;5.78;5.15;;;;;;;;;;5004332;28;20235;-57
2021/08/21 13:26:24;;;;;;;5.57;5.07;;;;;;;;;;4987255;28;20187;-57
2021/08/21 13:28:51;;;;;;;5.05;4.65;;;;;;;;;;4988663;28;20620;-58
2021/08/21 13:31:16;;;;;;;5.80;5.22;;;;;;;;;;4987439;28;20259;-58
2021/08/21 13:33:44;;;;;;;5.80;5.30;;;;;;;;;;4986397;28;20330;-58
2021/08/21 13:36:10;;;;;;;6.05;5.55;;;;;;;;;;4990597;28;20188;-59
2021/08/21 13:38:35;;;;;;;6.28;5.68;;;;;;;;;;4974841;28;20187;-57
2021/08/21 13:41:00;;;;;;;7.13;5.40;;;;;;;;;;4987654;28;20188;-57
2021/08/21 13:43:25;;;;;;;4.95;4.55;;;;;;;;;;4990541;28;20192;-57
2021/08/21 13:45:51;;;;;;;5.30;4.90;;;;;;;;;;5002799;28;20191;-56
2021/08/21 13:48:16;;;;;;;6.70;5.87;;;;;;;;;;4985753;28;20199;-57
2021/08/21 13:50:42;;;;;;;6.20;5.70;;;;;;;;;;5022571;23;20512;-78
2021/08/21 13:53:07;;;;;;;6.72;5.22;;;;;;;;;;5015767;28;20436;-78
2021/08/21 13:55:32;;;;;;;5.43;4.90;;;;;;;;;;5020791;28;20202;-79
2021/08/21 13:57:59;;;;;;;6.50;5.25;;;;;;;;;;5023358;28;20502;-78
2021/08/21 14:00:24;;;;;;;5.30;4.90;;;;;;;;;;5001238;28;20191;-77
2021/08/21 14:02:49;;;;;;;6.20;5.13;;;;;;;;;;5035212;23;20254;-56
2021/08/21 14:05:14;;;;;;;5.67;5.17;;;;;;;;;;5023080;28;20970;-57
2021/08/21 14:07:40;;;;;;;5.30;4.80;;;;;;;;;;5019687;28;20454;-56
2021/08/21 14:10:05;;;;;;;4.75;4.30;;;;;;;;;;5012288;28;20446;-56
2021/08/21 14:12:30;;;;;;;4.85;4.40;;;;;;;;;;4998651;28;20191;-57
2021/08/21 14:14:55;;;;;;;12.40;4.53;;;;;;;;;;4995338;28;20835;-56
2021/08/21 14:17:21;;;;;;;4.73;4.33;;;;;;;;;;5000774;28;20583;-57
2021/08/21 14:19:46;;;;;;;4.68;4.28;;;;;;;;;;4997092;28;20453;-56